Time;durP1;ratioP1;P1;durP2;ratioP2;P2;SDS_P1;SDS_P2;PMS_P1;PMS_P2;Temp;Humidity;BMP_temperature;BMP_pressure;BME280_temperature;BME280_humidity;BME280_pressure;Samples;Min_cycle;Max_cycle;Signal;HPM_P1;HPM_P2
2023/07/11 00:01:21;;;;;;;9.10;2.75;;;17.50;99.90;;;;;;6149835;23;20011;-85
2023/07/11 00:03:47;;;;;;;7.20;2.70;;;17.50;99.90;;;;;;6253435;22;20104;-85
2023/07/11 00:06:34;;;;;;;9.70;2.78;;;17.50;99.90;;;;;;6252519;22;20020;-85
2023/07/11 00:08:59;;;;;;;7.38;2.50;;;17.70;99.90;;;;;;6150672;23;20437;-85
2023/07/11 00:11:31;;;;;;;10.98;3.10;;;17.70;99.90;;;;;;6150309;23;20056;-85
2023/07/11 00:13:59;;;;;;;11.98;2.67;;;17.40;99.90;;;;;;6150224;23;20449;-85
2023/07/11 00:16:25;;;;;;;8.05;2.63;;;17.20;99.90;;;;;;6150868;23;20017;-85
2023/07/11 00:18:50;;;;;;;9.70;2.70;;;17.30;99.90;;;;;;6149692;23;20021;-85
2023/07/11 00:21:31;;;;;;;10.82;2.70;;;17.30;99.90;;;;;;6253693;22;20429;-85
2023/07/11 00:24:03;;;;;;;8.23;2.65;;;17.60;99.90;;;;;;6253451;22;20017;-84
2023/07/11 00:26:30;;;;;;;8.07;2.45;;;17.30;99.90;;;;;;6253316;22;20010;-84
2023/07/11 00:29:13;;;;;;;9.55;2.60;;;17.30;99.90;;;;;;6151137;23;20453;-84
2023/07/11 00:31:51;;;;;;;10.68;2.58;;;17.30;99.90;;;;;;6150621;23;20013;-84
2023/07/11 00:34:23;;;;;;;8.70;2.40;;;17.20;99.90;;;;;;6252993;22;20017;-85
2023/07/11 00:36:48;;;;;;;8.40;2.55;;;17.20;99.90;;;;;;6253301;22;20022;-84
2023/07/11 00:39:16;;;;;;;7.68;2.30;;;17.70;99.90;;;;;;6157225;22;20021;-84
2023/07/11 00:41:42;;;;;;;10.35;2.80;;;17.10;99.90;;;;;;6252809;22;20029;-84
2023/07/11 00:44:16;;;;;;;7.95;2.63;;;17.10;99.90;;;;;;6253929;22;20433;-84
2023/07/11 00:46:49;;;;;;;8.48;2.55;;;17.10;99.90;;;;;;6251793;22;20437;-85
2023/07/11 00:49:33;;;;;;;10.63;2.72;;;17.10;99.90;;;;;;6253173;22;20021;-84
2023/07/11 00:52:12;;;;;;;9.70;2.65;;;17.10;99.90;;;;;;6150841;23;20022;-84
2023/07/11 00:54:52;;;;;;;7.43;2.42;;;17.10;99.90;;;;;;6252794;22;20092;-84
2023/07/11 00:57:24;;;;;;;9.95;2.75;;;17.10;99.90;;;;;;6150670;23;20017;-85
2023/07/11 01:00:04;;;;;;;9.43;2.70;;;17.60;99.90;;;;;;6252798;22;20410;-84
2023/07/11 01:02:48;;;;;;;12.98;2.95;;;17.10;99.90;;;;;;6150339;22;20029;-84
2023/07/11 01:12:27;;;;;;;8.77;2.50;;;17.10;99.90;;;;;;6251641;22;20025;-84
2023/07/11 01:15:47;;;;;;;8.93;2.80;;;16.90;99.90;;;;;;6251712;22;20018;-85
2023/07/11 01:19:04;;;;;;;9.88;2.58;;;17.00;99.90;;;;;;6149882;23;20025;-85
2023/07/11 01:21:54;;;;;;;10.10;2.90;;;17.00;99.90;;;;;;6255328;22;20025;-84
2023/07/11 01:24:22;;;;;;;8.57;2.70;;;17.20;99.90;;;;;;6257513;22;20056;-85
2023/07/11 01:27:15;;;;;;;10.95;3.13;;;16.90;99.90;;;;;;6252810;22;20464;-85
2023/07/11 01:33:24;;;;;;;10.40;2.90;;;16.90;99.90;;;;;;6150409;23;20020;-84
2023/07/11 01:36:23;;;;;;;9.85;2.50;;;17.00;99.90;;;;;;6251794;22;20100;-84
2023/07/11 01:38:49;;;;;;;9.45;3.20;;;17.50;99.90;;;;;;6150888;22;20013;-85
2023/07/11 01:41:14;;;;;;;7.78;2.63;;;17.00;99.90;;;;;;6150522;23;20044;-84
2023/07/11 01:43:40;;;;;;;11.27;3.03;;;17.00;99.90;;;;;;6150425;22;20093;-85
2023/07/11 01:46:06;;;;;;;11.68;2.60;;;17.00;99.90;;;;;;6252874;22;20013;-84
2023/07/11 01:48:44;;;;;;;9.48;2.88;;;17.00;99.90;;;;;;6252156;22;20051;-85
2023/07/11 01:51:10;;;;;;;9.55;3.22;;;17.40;99.90;;;;;;6252405;22;20013;-84
2023/07/11 01:53:35;;;;;;;10.07;2.75;;;17.00;99.90;;;;;;6252925;22;20102;-85
2023/07/11 01:56:31;;;;;;;7.85;3.00;;;17.10;99.90;;;;;;6252825;22;20021;-84
2023/07/11 01:59:00;;;;;;;10.85;3.22;;;17.10;99.90;;;;;;6226988;22;20069;-85
2023/07/11 02:01:26;;;;;;;11.98;3.25;;;17.00;99.90;;;;;;6252809;22;20018;-84
2023/07/11 02:04:07;;;;;;;9.10;3.05;;;17.00;99.90;;;;;;6252127;22;20314;-85
2023/07/11 02:06:45;;;;;;;10.60;3.28;;;17.10;99.90;;;;;;6251447;22;20067;-85
2023/07/11 02:09:46;;;;;;;10.60;3.47;;;17.20;99.90;;;;;;6150638;23;20067;-85
2023/07/11 02:12:32;;;;;;;13.50;3.95;;;17.10;99.90;;;;;;6150052;22;20097;-85
2023/07/11 02:15:32;;;;;;;10.10;3.60;;;17.10;99.90;;;;;;6253025;22;20033;-84
2023/07/11 02:17:57;;;;;;;10.93;3.47;;;17.00;99.90;;;;;;6150096;23;20029;-85
2023/07/11 02:20:43;;;;;;;9.52;3.72;;;17.10;99.90;;;;;;6150521;23;20364;-84
2023/07/11 02:23:11;;;;;;;11.35;3.95;;;17.10;99.90;;;;;;6252760;22;20009;-85
2023/07/11 02:25:54;;;;;;;9.80;3.78;;;17.10;99.90;;;;;;6149858;23;20013;-85
2023/07/11 02:28:21;;;;;;;11.52;3.88;;;17.10;99.90;;;;;;6252699;22;20021;-85
2023/07/11 02:30:47;;;;;;;11.82;3.90;;;17.10;99.90;;;;;;6252421;22;20063;-85
2023/07/11 02:33:13;;;;;;;13.60;4.20;;;17.10;99.90;;;;;;6149712;23;20009;-85
2023/07/11 02:35:48;;;;;;;10.93;4.03;;;17.10;99.90;;;;;;6149167;23;20082;-84
2023/07/11 02:38:13;;;;;;;11.15;4.45;;;17.10;99.90;;;;;;6150295;23;20017;-85
2023/07/11 02:40:39;;;;;;;11.05;4.25;;;17.20;99.90;;;;;;6149779;23;20018;-85
2023/07/11 02:43:18;;;;;;;10.40;4.22;;;17.20;99.90;;;;;;6150497;23;20102;-85
2023/07/11 02:45:44;;;;;;;10.85;4.40;;;17.20;99.90;;;;;;6149312;23;20453;-85
2023/07/11 02:48:15;;;;;;;10.48;3.88;;;17.20;99.90;;;;;;6253024;22;20026;-85
2023/07/11 02:50:41;;;;;;;10.32;4.18;;;17.30;99.90;;;;;;6254276;22;20014;-84
2023/07/11 02:53:07;;;;;;;10.27;4.53;;;17.20;99.90;;;;;;6254480;22;20502;-85
2023/07/11 02:55:44;;;;;;;12.18;4.25;;;17.30;99.90;;;;;;6253315;22;20017;-85
2023/07/11 02:58:31;;;;;;;12.00;4.82;;;17.50;99.90;;;;;;6151561;22;20483;-84
2023/07/11 03:01:03;;;;;;;10.93;4.35;;;17.20;99.90;;;;;;6253664;22;20010;-85
2023/07/11 03:03:29;;;;;;;10.30;4.50;;;17.20;99.90;;;;;;6254197;22;20025;-85
2023/07/11 03:05:56;;;;;;;12.20;4.40;;;17.20;99.90;;;;;;6254019;22;20021;-85
2023/07/11 03:08:22;;;;;;;12.48;4.45;;;17.20;99.90;;;;;;6265428;22;20035;-85
2023/07/11 03:10:48;;;;;;;13.50;4.47;;;17.10;99.90;;;;;;6275425;22;20020;-85
2023/07/11 03:13:30;;;;;;;9.70;4.22;;;17.60;99.90;;;;;;6277029;22;20022;-85
2023/07/11 03:16:00;;;;;;;11.38;4.53;;;17.10;99.90;;;;;;6274626;22;20023;-84
2023/07/11 03:18:25;;;;;;;11.07;4.32;;;17.10;99.90;;;;;;6277142;22;20378;-85
2023/07/11 03:20:51;;;;;;;10.65;4.65;;;17.10;99.90;;;;;;6276716;22;20012;-84
2023/07/11 03:23:20;;;;;;;11.52;4.57;;;17.30;99.90;;;;;;6249107;22;20511;-84
2023/07/11 03:26:01;;;;;;;11.98;4.53;;;17.10;99.90;;;;;;6276121;22;20090;-85
2023/07/11 03:28:26;;;;;;;11.07;4.50;;;17.10;99.90;;;;;;6276094;22;20046;-85
2023/07/11 03:31:26;;;;;;;11.27;4.38;;;17.10;99.90;;;;;;6274882;22;20016;-84
2023/07/11 03:33:51;;;;;;;12.43;4.60;;;17.10;99.90;;;;;;6274199;22;20386;-85
2023/07/11 03:36:18;;;;;;;9.23;4.50;;;17.00;99.90;;;;;;6276893;22;20094;-85
2023/07/11 03:38:56;;;;;;;11.95;4.40;;;17.00;99.90;;;;;;6274837;22;20019;-85
2023/07/11 03:41:46;;;;;;;11.95;4.50;;;17.20;99.90;;;;;;6275127;22;20094;-84
2023/07/11 03:44:12;;;;;;;9.20;4.18;;;16.90;99.90;;;;;;6274857;22;20041;-84
2023/07/11 03:46:37;;;;;;;11.10;4.97;;;17.00;99.90;;;;;;6276315;22;20086;-85
2023/07/11 03:49:18;;;;;;;12.43;4.38;;;17.00;99.90;;;;;;6276935;22;20086;-84
2023/07/11 03:51:44;;;;;;;13.55;4.50;;;17.10;99.90;;;;;;6274294;22;20020;-85
2023/07/11 03:54:10;;;;;;;12.02;5.03;;;17.00;99.90;;;;;;6275134;22;20015;-85
2023/07/11 03:56:51;;;;;;;12.07;4.25;;;17.10;99.90;;;;;;6275439;22;20028;-85
2023/07/11 03:59:26;;;;;;;10.73;4.05;;;17.60;99.90;;;;;;6274823;22;20016;-85
2023/07/11 04:02:06;;;;;;;13.82;4.38;;;17.10;99.90;;;;;;6275747;22;20022;-85
2023/07/11 04:04:33;;;;;;;9.63;3.85;;;17.10;99.90;;;;;;6272585;22;20015;-85
2023/07/11 04:06:59;;;;;;;13.00;4.65;;;17.10;99.90;;;;;;6244512;22;20013;-85
2023/07/11 04:09:40;;;;;;;10.40;4.22;;;17.80;99.90;;;;;;6150971;23;20033;-84
2023/07/11 04:12:24;;;;;;;10.13;4.22;;;17.20;99.90;;;;;;6253865;22;20056;-85
2023/07/11 04:14:49;;;;;;;10.68;4.30;;;17.20;99.90;;;;;;6151089;22;20377;-85
2023/07/11 04:17:30;;;;;;;10.20;3.85;;;17.20;99.90;;;;;;6151520;22;20018;-85
2023/07/11 04:19:56;;;;;;;11.27;4.03;;;17.30;99.90;;;;;;6253252;22;20353;-85
2023/07/11 04:22:48;;;;;;;11.32;4.20;;;17.30;99.90;;;;;;6254049;22;20014;-85
2023/07/11 04:25:13;;;;;;;10.45;4.55;;;17.30;99.90;;;;;;6253672;22;20018;-85
2023/07/11 04:27:39;;;;;;;12.38;4.03;;;17.40;99.90;;;;;;6155131;23;20024;-85
2023/07/11 04:30:08;;;;;;;10.20;4.60;;;17.40;99.90;;;;;;6262474;22;20018;-85
2023/07/11 04:32:35;;;;;;;9.93;4.20;;;17.50;99.90;;;;;;6152228;23;20029;-85
2023/07/11 04:35:01;;;;;;;11.75;4.32;;;17.50;99.90;;;;;;6152204;22;20016;-85
2023/07/11 04:37:30;;;;;;;10.65;4.10;;;17.60;99.90;;;;;;6254163;22;20057;-85
2023/07/11 04:40:06;;;;;;;12.38;4.13;;;17.70;99.90;;;;;;6150641;23;20094;-85
2023/07/11 04:42:32;;;;;;;12.52;4.20;;;17.70;99.90;;;;;;6151054;23;20025;-85
2023/07/11 04:44:57;;;;;;;11.65;4.30;;;17.80;99.90;;;;;;6253704;22;20333;-85
2023/07/11 04:47:38;;;;;;;12.70;4.35;;;17.90;99.90;;;;;;6150561;23;20131;-85
2023/07/11 04:50:13;;;;;;;10.07;4.40;;;17.90;99.90;;;;;;6253885;22;20021;-85
2023/07/11 04:52:39;;;;;;;10.73;4.63;;;17.90;99.90;;;;;;6253399;22;20017;-85
2023/07/11 04:55:05;;;;;;;10.73;4.45;;;18.00;99.90;;;;;;6253217;22;20028;-85
2023/07/11 04:57:34;;;;;;;10.38;4.50;;;18.10;99.90;;;;;;6253219;22;20432;-85
2023/07/11 04:59:59;;;;;;;12.13;4.47;;;18.10;99.90;;;;;;6253930;22;20029;-85
2023/07/11 05:02:25;;;;;;;10.40;4.50;;;18.10;99.90;;;;;;6151504;23;20017;-85
2023/07/11 05:04:51;;;;;;;12.30;4.10;;;18.20;99.90;;;;;;6253123;22;20024;-85
2023/07/11 05:07:38;;;;;;;10.55;4.45;;;18.20;99.90;;;;;;6253132;22;20333;-85
2023/07/11 05:10:04;;;;;;;10.65;4.60;;;18.20;99.90;;;;;;6151631;22;20136;-85
2023/07/11 05:12:45;;;;;;;10.45;4.30;;;18.20;99.90;;;;;;6253179;22;20017;-85
2023/07/11 05:15:12;;;;;;;10.85;4.90;;;18.20;99.90;;;;;;6150620;23;20066;-85
2023/07/11 05:17:40;;;;;;;11.30;4.55;;;18.10;99.90;;;;;;6150756;23;20029;-85
2023/07/11 05:20:23;;;;;;;10.32;4.40;;;18.10;99.90;;;;;;6150786;23;20024;-84
2023/07/11 05:23:07;;;;;;;12.88;4.78;;;18.10;99.90;;;;;;6252943;22;20797;-85
2023/07/11 05:25:52;;;;;;;13.35;4.55;;;18.20;99.90;;;;;;6150316;23;20356;-85
2023/07/11 05:28:30;;;;;;;9.77;4.68;;;18.20;99.90;;;;;;6252930;22;20459;-85
2023/07/11 05:31:21;;;;;;;15.05;4.70;;;18.30;99.90;;;;;;6150512;23;20048;-84
2023/07/11 05:33:53;;;;;;;11.75;4.60;;;18.10;99.90;;;;;;6252386;22;20028;-85
2023/07/11 05:36:35;;;;;;;11.60;4.47;;;18.60;99.90;;;;;;6150899;22;20014;-87
2023/07/11 05:39:19;;;;;;;10.52;4.85;;;18.70;99.90;;;;;;6254053;22;20013;-82
2023/07/11 05:41:49;;;;;;;13.38;4.70;;;18.90;99.90;;;;;;6150440;23;20037;-82
2023/07/11 05:44:22;;;;;;;10.20;4.68;;;19.00;99.90;;;;;;6251818;22;20096;-81
2023/07/11 05:46:51;;;;;;;12.40;4.43;;;19.00;99.90;;;;;;6252896;22;20017;-81
2023/07/11 05:49:32;;;;;;;11.15;4.90;;;19.20;99.90;;;;;;6254079;22;20355;-81
2023/07/11 05:52:06;;;;;;;11.63;4.65;;;19.20;99.90;;;;;;6253720;22;20010;-80
2023/07/11 05:54:34;;;;;;;14.13;5.13;;;19.30;99.90;;;;;;6150141;23;20504;-81
2023/07/11 05:57:01;;;;;;;25.45;6.10;;;19.40;99.90;;;;;;6252843;22;20025;-80
2023/07/11 05:59:38;;;;;;;19.85;6.07;;;19.50;99.90;;;;;;6253602;22;20021;-81
2023/07/11 06:02:04;;;;;;;13.05;4.97;;;19.50;99.90;;;;;;6252716;22;20088;-81
2023/07/11 06:06:55;;;;;;;10.93;5.00;;;19.60;99.90;;;;;;6150411;22;20020;-82
2023/07/11 06:09:45;;;;;;;13.57;5.00;;;19.60;99.90;;;;;;6150412;23;20021;-78
2023/07/11 06:12:20;;;;;;;10.18;4.57;;;19.40;99.90;;;;;;6252026;22;20063;-77
2023/07/11 06:14:46;;;;;;;11.13;4.90;;;19.60;99.90;;;;;;6252114;22;20021;-78
2023/07/11 06:17:12;;;;;;;12.77;4.60;;;19.70;99.90;;;;;;6149642;23;20020;-78
2023/07/11 06:19:37;;;;;;;13.73;4.65;;;19.80;99.90;;;;;;6150168;23;20013;-78
2023/07/11 06:22:03;;;;;;;11.20;5.10;;;20.00;99.90;;;;;;6252760;22;20098;-78
2023/07/11 06:24:29;;;;;;;15.05;5.43;;;20.20;99.90;;;;;;6149317;23;20767;-78
2023/07/11 06:26:54;;;;;;;15.30;5.25;;;20.40;99.90;;;;;;6150954;23;20069;-78
2023/07/11 06:29:20;;;;;;;12.32;4.65;;;20.50;99.90;;;;;;6251892;22;20018;-78
2023/07/11 06:31:48;;;;;;;10.27;4.60;;;20.70;99.90;;;;;;6149098;23;20333;-78
2023/07/11 06:34:14;;;;;;;11.45;4.82;;;20.70;99.90;;;;;;6150498;23;20021;-78
2023/07/11 06:36:40;;;;;;;12.65;4.57;;;20.80;99.90;;;;;;6252787;22;20447;-78
2023/07/11 06:39:06;;;;;;;14.80;4.60;;;20.80;99.90;;;;;;6252637;22;20021;-79
2023/07/11 06:41:32;;;;;;;10.80;4.57;;;20.90;99.90;;;;;;6150616;22;20056;-78
2023/07/11 06:43:58;;;;;;;12.80;4.60;;;21.00;99.90;;;;;;6253042;22;20013;-79
2023/07/11 06:46:23;;;;;;;10.85;4.07;;;21.10;99.90;;;;;;6252324;22;20022;-78
2023/07/11 06:48:49;;;;;;;10.57;4.60;;;21.20;99.90;;;;;;6150348;23;20035;-79
2023/07/11 06:51:15;;;;;;;10.32;4.32;;;21.20;99.90;;;;;;6150450;23;20049;-78
2023/07/11 06:53:40;;;;;;;9.95;4.30;;;21.20;99.90;;;;;;6252330;22;20440;-78
2023/07/11 06:56:06;;;;;;;12.02;5.00;;;21.20;99.90;;;;;;6253219;22;20028;-78
2023/07/11 06:58:32;;;;;;;10.23;4.60;;;21.20;99.90;;;;;;6252405;22;20028;-79
2023/07/11 07:01:03;;;;;;;12.75;4.53;;;21.20;99.90;;;;;;6252354;22;20326;-78
2023/07/11 07:03:30;;;;;;;10.93;4.70;;;21.30;99.90;;;;;;6252564;22;20009;-79
2023/07/11 07:05:59;;;;;;;14.57;4.90;;;21.50;99.90;;;;;;6273074;22;20024;-79
2023/07/11 07:08:25;;;;;;;13.95;4.78;;;21.60;99.90;;;;;;6273412;22;20024;-79
2023/07/11 07:10:51;;;;;;;10.90;4.32;;;21.70;99.90;;;;;;6274949;22;20458;-79
2023/07/11 07:13:19;;;;;;;10.27;4.70;;;21.80;99.90;;;;;;6274121;22;20065;-80
2023/07/11 07:15:49;;;;;;;9.13;3.58;;;22.00;99.90;;;;;;6272705;22;20100;-79
2023/07/11 07:18:16;;;;;;;10.38;3.72;;;22.30;99.90;;;;;;6273312;22;20015;-79
2023/07/11 07:20:46;;;;;;;11.10;3.90;;;22.60;99.90;;;;;;6274330;22;20020;-79
2023/07/11 07:23:12;;;;;;;12.32;3.70;;;22.80;99.90;;;;;;6273876;22;20103;-78
2023/07/11 07:25:38;;;;;;;11.30;4.00;;;23.10;99.90;;;;;;6273396;22;20022;-78
2023/07/11 07:28:04;;;;;;;11.73;3.80;;;23.30;99.90;;;;;;6273228;22;20015;-78
2023/07/11 07:30:29;;;;;;;8.70;3.63;;;23.60;99.90;;;;;;6274973;22;20027;-79
2023/07/11 07:32:55;;;;;;;9.77;3.72;;;23.70;99.90;;;;;;6273363;22;20023;-81
2023/07/11 07:35:21;;;;;;;9.82;3.88;;;23.90;99.90;;;;;;6273995;22;20030;-81
2023/07/11 07:37:50;;;;;;;10.20;3.70;;;23.90;99.90;;;;;;6280663;22;20086;-82
2023/07/11 07:40:17;;;;;;;8.60;3.03;;;23.90;99.90;;;;;;6279779;22;20061;-82
2023/07/11 07:42:42;;;;;;;10.55;3.75;;;23.90;99.90;;;;;;6274501;22;20312;-82
2023/07/11 07:45:11;;;;;;;10.43;4.03;;;23.90;99.90;;;;;;6276041;22;20103;-82
2023/07/11 07:47:46;;;;;;;10.88;3.72;;;23.90;99.90;;;;;;6273596;22;20020;-81
2023/07/11 07:50:46;;;;;;;9.82;3.47;;;23.80;99.90;;;;;;6274277;22;20016;-82
2023/07/11 07:53:15;;;;;;;9.75;3.55;;;23.70;99.90;;;;;;6272593;22;20443;-82
2023/07/11 07:56:46;;;;;;;11.50;3.55;;;24.00;99.90;;;;;;6275780;22;20054;-82
2023/07/11 07:59:12;;;;;;;9.25;3.80;;;24.30;99.90;;;;;;6274635;22;20023;-83
2023/07/11 08:01:53;;;;;;;8.88;3.90;;;24.50;99.90;;;;;;6276259;22;20362;-83
2023/07/11 08:07:59;;;;;;;8.88;3.53;;;24.80;99.90;;;;;;6276272;22;20022;-82
2023/07/11 08:10:45;;;;;;;10.75;3.60;;;25.20;99.90;;;;;;6276334;22;20016;-82
2023/07/11 08:13:11;;;;;;;10.18;3.67;;;25.20;99.90;;;;;;6277224;22;20391;-83
2023/07/11 08:19:18;;;;;;;11.05;3.50;;;25.40;99.90;;;;;;6276643;22;20065;-83
2023/07/11 08:21:47;;;;;;;8.40;3.15;;;25.50;99.90;;;;;;6272480;22;20016;-83
2023/07/11 08:24:42;;;;;;;14.93;3.30;;;25.70;99.90;;;;;;6271541;22;20321;-84
2023/07/11 08:27:08;;;;;;;10.00;3.20;;;25.90;99.90;;;;;;6264915;22;20023;-83
2023/07/11 08:29:52;;;;;;;12.23;3.60;;;26.00;99.90;;;;;;6275266;22;20153;-84
2023/07/11 08:32:24;;;;;;;10.20;3.10;;;26.10;99.90;;;;;;6274642;22;20019;-84
2023/07/11 08:34:49;;;;;;;15.05;3.60;;;26.30;99.90;;;;;;6273509;22;20147;-84
2023/07/11 08:37:21;;;;;;;10.60;3.28;;;26.30;99.90;;;;;;6275945;22;20472;-84
2023/07/11 08:39:50;;;;;;;12.50;3.35;;;26.30;99.70;;;;;;6274182;22;20323;-83
2023/07/11 08:42:49;;;;;;;10.27;3.03;;;26.20;99.90;;;;;;6274357;22;20016;-83
2023/07/11 08:52:01;;;;;;;8.95;2.75;;;26.40;97.70;;;;;;6275486;22;20070;-84
2023/07/11 08:54:36;;;;;;;9.02;2.90;;;26.60;97.60;;;;;;6274846;22;20020;-85
2023/07/11 08:57:10;;;;;;;9.43;2.90;;;26.90;98.40;;;;;;6274735;22;20394;-83
2023/07/11 09:00:24;;;;;;;9.13;2.92;;;27.00;97.00;;;;;;6273296;22;20398;-83
2023/07/11 09:03:35;;;;;;;8.93;2.78;;;27.10;96.30;;;;;;6274335;22;20023;-84
2023/07/11 09:06:18;;;;;;;9.82;2.90;;;27.30;96.70;;;;;;6273696;22;20044;-84
2023/07/11 09:08:46;;;;;;;11.10;2.70;;;27.50;97.00;;;;;;6273516;22;20105;-84
2023/07/11 09:11:56;;;;;;;10.63;2.70;;;27.50;96.50;;;;;;6227710;22;20026;-83
2023/07/11 09:14:56;;;;;;;9.13;2.83;;;27.80;95.30;;;;;;6153958;22;20507;-84
2023/07/11 09:17:43;;;;;;;11.65;3.00;;;27.80;95.80;;;;;;6253155;22;20342;-84
2023/07/11 09:20:57;;;;;;;9.88;3.13;;;27.90;94.30;;;;;;6150158;23;20025;-82
2023/07/11 09:23:40;;;;;;;;;;;27.90;93.80;;;;;;6253654;22;20280;-82
2023/07/11 09:26:11;;;;;;;9.05;2.95;;;27.80;94.00;;;;;;6253047;22;20328;-85
2023/07/11 09:28:39;;;;;;;13.02;2.60;;;27.80;94.80;;;;;;6150477;23;20014;-85
2023/07/11 09:31:17;;;;;;;10.40;3.00;;;27.90;94.40;;;;;;6252242;22;20059;-84
2023/07/11 09:33:51;;;;;;;9.93;3.60;;;27.80;93.90;;;;;;6252755;22;20013;-84
2023/07/11 09:37:01;;;;;;;9.95;3.15;;;28.00;94.20;;;;;;6150165;23;20084;-84
2023/07/11 09:39:27;;;;;;;10.32;3.03;;;28.20;94.60;;;;;;6149613;22;20070;-82
2023/07/11 09:42:39;;;;;;;10.48;3.17;;;28.40;95.10;;;;;;6148569;23;20100;-82
2023/07/11 09:45:27;;;;;;;10.50;2.90;;;28.50;93.60;;;;;;6250635;22;20021;-81
2023/07/11 09:51:48;;;;;;;9.98;3.15;;;28.50;93.70;;;;;;6181795;23;20053;-82
2023/07/11 09:54:44;;;;;;;12.82;3.20;;;28.40;93.90;;;;;;6156619;23;20013;-83
2023/07/11 09:57:25;;;;;;;10.88;3.08;;;28.50;92.00;;;;;;6155727;23;20028;-83
2023/07/11 09:59:59;;;;;;;10.23;3.10;;;28.70;92.10;;;;;;6181239;23;20021;-81
2023/07/11 10:02:25;;;;;;;9.23;2.88;;;28.60;92.60;;;;;;6155452;23;20067;-81
2023/07/11 10:05:02;;;;;;;9.15;3.00;;;28.50;93.00;;;;;;6155841;23;20103;-80
2023/07/11 10:07:31;;;;;;;10.13;3.20;;;28.40;92.10;;;;;;6156544;23;20059;-81
2023/07/11 10:10:13;;;;;;;11.23;3.20;;;28.60;93.30;;;;;;6181193;23;20020;-81
2023/07/11 10:12:50;;;;;;;9.57;2.50;;;28.80;93.20;;;;;;6181251;23;20020;-81
2023/07/11 10:15:47;;;;;;;9.88;2.70;;;29.00;92.60;;;;;;6181173;23;20156;-81
2023/07/11 10:25:27;;;;;;;9.15;2.80;;;29.00;90.30;;;;;;6180453;23;20052;-82
2023/07/11 10:28:42;;;;;;;8.98;2.80;;;28.90;91.30;;;;;;6193077;22;20053;-83
2023/07/11 10:32:00;;;;;;;10.90;2.92;;;28.50;90.00;;;;;;6149865;23;20025;-82
2023/07/11 10:34:56;;;;;;;10.23;2.95;;;28.90;90.00;;;;;;6149663;23;20099;-83
2023/07/11 10:38:15;;;;;;;7.78;2.70;;;28.90;89.80;;;;;;6252241;22;20029;-83
2023/07/11 10:44:50;;;;;;;9.00;2.70;;;29.10;89.10;;;;;;6149129;23;20066;-81
2023/07/11 10:47:32;;;;;;;8.20;2.90;;;29.30;90.10;;;;;;6253170;22;20017;-82
2023/07/11 10:50:11;;;;;;;12.20;2.70;;;29.20;90.00;;;;;;6255048;22;20021;-82
2023/07/11 10:53:12;;;;;;;10.25;2.80;;;29.30;90.60;;;;;;6258364;22;20013;-82
2023/07/11 10:56:00;;;;;;;8.27;2.97;;;29.50;89.60;;;;;;6252582;22;20456;-83
2023/07/11 10:58:29;;;;;;;9.05;2.35;;;29.20;88.40;;;;;;6252640;22;20018;-83
2023/07/11 11:01:30;;;;;;;8.90;2.83;;;29.30;90.00;;;;;;6252712;22;20014;-84
2023/07/11 11:04:32;;;;;;;10.43;2.80;;;29.40;88.80;;;;;;6202339;22;20456;-83
2023/07/11 11:07:49;;;;;;;7.22;2.53;;;29.60;90.00;;;;;;6149210;23;20017;-82
2023/07/11 11:10:58;;;;;;;8.55;2.58;;;29.40;89.00;;;;;;6156733;23;20016;-83
2023/07/11 11:14:16;;;;;;;8.43;2.60;;;29.90;89.80;;;;;;6182427;23;20017;-83
2023/07/11 11:17:30;;;;;;;9.95;2.70;;;30.10;88.90;;;;;;6179213;23;20103;-83
2023/07/11 11:20:41;;;;;;;8.45;2.40;;;30.30;88.30;;;;;;6155016;23;20028;-83
2023/07/11 11:23:45;;;;;;;9.40;2.72;;;30.20;87.20;;;;;;6101537;23;20018;-82
2023/07/11 11:29:40;;;;;;;12.82;2.72;;;29.90;89.10;;;;;;6152502;22;20025;-81
2023/07/11 11:32:46;;;;;;;10.52;2.50;;;30.00;88.00;;;;;;6150486;23;20513;-82
2023/07/11 11:35:52;;;;;;;7.53;2.45;;;30.00;87.70;;;;;;6150300;23;20092;-82
2023/07/11 11:38:47;;;;;;;10.32;2.90;;;30.20;88.40;;;;;;6254231;22;20022;-83
2023/07/11 11:41:51;;;;;;;8.65;2.50;;;30.10;88.50;;;;;;6253496;22;20330;-82
2023/07/11 11:44:46;;;;;;;7.28;2.55;;;30.00;88.10;;;;;;6156106;23;20436;-82
2023/07/11 11:47:15;;;;;;;9.02;2.95;;;30.30;89.00;;;;;;6055877;23;20094;-82
2023/07/11 11:49:45;;;;;;;7.05;2.30;;;30.50;89.90;;;;;;6227245;22;20078;-82
2023/07/11 11:52:45;;;;;;;8.93;2.80;;;30.50;89.60;;;;;;6253857;22;20025;-82
2023/07/11 11:59:06;;;;;;;10.38;2.75;;;30.70;88.20;;;;;;6149017;22;20040;-82
2023/07/11 12:06:00;;;;;;;8.77;2.88;;;30.70;88.60;;;;;;6153725;22;20099;-83
2023/07/11 12:09:05;;;;;;;12.07;3.33;;;30.90;89.00;;;;;;6179446;23;20111;-83
2023/07/11 12:24:04;;;;;;;11.75;2.80;;;31.20;87.50;;;;;;6141667;22;20025;-83
2023/07/11 12:26:49;;;;;;;8.57;2.85;;;31.00;85.60;;;;;;6252209;22;20464;-84
2023/07/11 12:33:00;;;;;;;8.40;2.60;;;31.20;88.40;;;;;;6160481;22;20021;-83
2023/07/11 12:36:01;;;;;;;8.87;2.50;;;31.60;88.50;;;;;;6155481;23;20021;-83
2023/07/11 12:58:44;;;;;;;8.63;2.35;;;31.60;86.50;;;;;;6141755;22;20476;-83
2023/07/11 13:04:10;;;;;;;12.02;2.63;;;31.60;83.20;;;;;;6209215;22;20018;-83
2023/07/11 13:10:42;;;;;;;7.88;2.50;;;31.40;80.30;;;;;;6148351;23;20093;-82
2023/07/11 13:13:27;;;;;;;9.02;2.83;;;31.70;80.70;;;;;;6177505;22;20043;-83
2023/07/11 13:15:53;;;;;;;8.80;2.70;;;31.80;80.50;;;;;;6251810;22;20021;-83
2023/07/11 13:18:42;;;;;;;7.28;2.40;;;31.50;81.90;;;;;;6252785;22;20318;-83
2023/07/11 13:21:09;;;;;;;7.32;2.55;;;31.30;81.00;;;;;;6179403;23;20084;-83
2023/07/11 13:23:45;;;;;;;8.38;2.60;;;30.90;82.60;;;;;;6180443;23;20013;-83
2023/07/11 13:27:19;;;;;;;7.63;2.70;;;30.90;81.40;;;;;;6161321;22;20448;-83
2023/07/11 13:30:48;;;;;;;11.35;2.70;;;30.80;81.90;;;;;;6148787;23;20022;-83
2023/07/11 13:33:41;;;;;;;8.40;2.78;;;30.50;82.80;;;;;;6148052;23;20013;-83
2023/07/11 13:36:34;;;;;;;8.95;2.60;;;30.10;84.10;;;;;;6251295;22;20021;-83
2023/07/11 13:39:27;;;;;;;9.85;2.75;;;30.10;81.50;;;;;;6153157;23;20024;-82
2023/07/11 13:42:15;;;;;;;;;;;30.10;82.50;;;;;;6062100;23;20030;-82
2023/07/11 13:45:06;;;;;;;9.27;2.70;;;29.80;83.50;;;;;;6148114;23;19920;-82
2023/07/11 13:47:49;;;;;;;7.38;2.60;;;29.80;84.50;;;;;;6125325;23;20025;-83
2023/07/11 13:50:33;;;;;;;8.20;2.83;;;29.50;84.70;;;;;;6124964;23;20078;-83
2023/07/11 13:53:17;;;;;;;8.50;2.83;;;29.70;86.70;;;;;;6150407;23;20036;-83
2023/07/11 13:55:54;;;;;;;9.00;2.70;;;29.90;85.10;;;;;;6124936;23;20021;-83
2023/07/11 13:58:32;;;;;;;10.38;2.80;;;29.80;84.90;;;;;;6150262;23;20018;-82
2023/07/11 14:01:21;;;;;;;10.45;2.90;;;29.70;84.10;;;;;;6128431;23;20049;-83
2023/07/11 14:03:55;;;;;;;8.32;2.70;;;29.80;84.10;;;;;;6155212;23;20022;-82
2023/07/11 14:06:31;;;;;;;7.47;2.60;;;29.70;84.70;;;;;;6126216;23;20016;-82
2023/07/11 14:08:57;;;;;;;10.15;2.78;;;29.70;83.90;;;;;;6125771;23;20017;-82
2023/07/11 14:11:43;;;;;;;11.10;2.92;;;29.70;84.90;;;;;;6125418;22;20097;-83
2023/07/11 14:18:00;;;;;;;8.15;2.70;;;29.60;85.00;;;;;;6183768;23;20099;-83
2023/07/11 14:21:03;;;;;;;7.90;2.72;;;29.70;85.50;;;;;;6209165;23;20345;-83
2023/07/11 14:23:35;;;;;;;9.70;2.83;;;29.80;85.70;;;;;;6181840;23;20024;-83
2023/07/11 14:29:41;;;;;;;9.88;3.13;;;30.10;84.40;;;;;;6196838;23;20093;-83
2023/07/11 14:32:20;;;;;;;8.88;2.75;;;30.00;84.30;;;;;;6184307;23;20020;-84
2023/07/11 14:34:46;;;;;;;7.60;2.50;;;30.00;84.90;;;;;;6245805;22;20011;-84
2023/07/11 14:37:21;;;;;;;7.78;2.80;;;30.00;85.80;;;;;;6273240;22;20493;-85
2023/07/11 14:39:55;;;;;;;8.30;2.80;;;30.30;84.40;;;;;;6272440;22;20016;-83
2023/07/11 14:42:45;;;;;;;9.32;3.00;;;30.30;84.00;;;;;;6272288;22;20023;-83
2023/07/11 14:45:26;;;;;;;10.00;2.78;;;30.10;83.00;;;;;;6229730;22;20110;-84
2023/07/11 14:47:54;;;;;;;9.35;3.25;;;30.00;84.70;;;;;;6273415;22;20016;-84
2023/07/11 14:50:29;;;;;;;9.73;2.92;;;30.10;85.60;;;;;;6273671;22;20352;-85
2023/07/11 14:52:59;;;;;;;6.90;2.55;;;30.10;84.30;;;;;;6275464;22;20020;-86
2023/07/11 14:55:27;;;;;;;8.35;2.90;;;30.30;85.60;;;;;;6274268;22;20012;-84
2023/07/11 14:57:59;;;;;;;10.63;2.78;;;30.50;85.10;;;;;;6273089;22;20023;-84
2023/07/11 15:00:48;;;;;;;7.90;2.72;;;30.80;84.80;;;;;;6276194;22;20007;-84
2023/07/11 15:03:51;;;;;;;8.80;3.10;;;30.70;85.00;;;;;;6273617;22;20027;-84
2023/07/11 15:06:23;;;;;;;8.73;2.88;;;30.30;84.30;;;;;;6272682;22;20020;-84
2023/07/11 15:08:55;;;;;;;10.30;2.90;;;30.00;84.20;;;;;;6273398;22;20486;-83
2023/07/11 15:11:54;;;;;;;9.47;2.90;;;29.80;84.00;;;;;;6274846;22;20019;-89
2023/07/11 15:14:21;;;;;;;7.95;2.78;;;30.00;84.70;;;;;;6275206;22;20390;-85
2023/07/11 15:16:55;;;;;;;9.63;3.17;;;30.50;85.50;;;;;;6272454;22;20043;-85
2023/07/11 15:19:46;;;;;;;7.63;2.60;;;30.40;84.90;;;;;;6271370;22;20043;-84